Aegean Navigator — SWBI — position and weather

sailwx.info

Track history (hours):
 
Tides and Currents Weather Stations Pressure Air Temp Water Temp Dewpoint Dewpoint Depression Visibility Wind Speed Wind Dir Waves Ship Positions

Aegean Navigator

Last reported at 2016-Sep-29 00:30 UTC. Time now 2016-Sep-29 16:58 UTC.
Position N 52°22' E 002°06'.

Length 274 m; draft 15.7 m.

Type: Ship. MMSI: 240634000.

Date/timePositionNaut miles runAvg speedWind from/ knotsBaromVisibWave heightAir tempDewpointWater temp
2016-Sep-29 00:30N 52°22' E 002°06'0 0.0
2016-Sep-28 12:33N 52°22' E 002°06'0 0.1
2016-Sep-28 08:30N 52°22' E 002°06'0 0.1
2016-Sep-28 03:33N 52°22' E 002°06'0 0.1
2016-Sep-28 02:33N 52°22' E 002°06'0 0.0
2016-Sep-28 01:33N 52°22' E 002°06'18029.6
2016-Sep-27 19:29N 54°43' W 001°02'0 0.0
2016-Sep-27 14:04N 54°43' W 001°02'0 0.0
2016-Sep-27 13:27N 54°43' W 001°02'1 0.3
2016-Sep-27 10:32N 54°43' W 001°00'4 0.4
2016-Sep-27 00:32N 54°43' W 001°06'2 0.4
2016-Sep-26 20:31N 54°43' W 001°04'1 1.2
2016-Sep-26 19:29N 54°43' W 001°02'1 0.3
2016-Sep-26 15:30N 54°43' W 001°04'0 0.0
2016-Sep-26 13:31N 54°43' W 001°04'0 0.0
2016-Sep-26 11:29N 54°43' W 001°04'2 0.8
2016-Sep-26 08:29N 54°43' W 000°59'3 0.4
2016-Sep-26 02:26N 54°43' W 000°55'4 5.0
2016-Sep-26 01:33N 54°43' W 001°03'1 0.6
2016-Sep-26 00:32N 54°43' W 001°04'1 0.2
2016-Sep-25 21:33N 54°43' W 001°03'1 0.2
2016-Sep-25 17:33N 54°43' W 001°04'0 0.0
2016-Sep-25 16:31N 54°43' W 001°04'2 2.5
2016-Sep-25 15:33N 54°43' W 000°59'2 2.0
2016-Sep-25 14:33N 54°43' W 001°03'3 1.5
2016-Sep-25 12:33N 54°43' W 000°58'0 0.0
2016-Sep-25 11:32N 54°43' W 000°58'0 0.0
2016-Sep-25 10:32N 54°43' W 000°58'0 0.0
2016-Sep-25 09:33N 54°43' W 000°58'2 1.1
2016-Sep-25 07:33N 54°43' W 001°02'4 1.4
2016-Sep-25 04:34N 54°44' W 000°54'0 0.1
2016-Sep-25 00:34N 54°44' W 000°54'0 0.0
2016-Sep-24 22:33N 54°44' W 000°54'0 0.0
2016-Sep-24 21:34N 54°44' W 000°54'0 0.0
2016-Sep-24 19:33N 54°44' W 000°54'0 0.0
2016-Sep-24 18:33N 54°44' W 000°54'0 0.0
2016-Sep-24 17:33N 54°44' W 000°54'0 0.0
2016-Sep-24 16:33N 54°44' W 000°54'0 0.0
2016-Sep-24 14:33N 54°44' W 000°54'1 0.2
2016-Sep-24 10:33N 54°44' W 000°53'0 0.3
2016-Sep-24 09:33N 54°44' W 000°54'0 0.0
2016-Sep-24 03:33N 54°44' W 000°54'3 2.6
2016-Sep-24 02:34N 54°44' W 000°50'8 7.7
2016-Sep-24 01:33N 54°43' W 000°37'3 3.2
2016-Sep-24 00:34N 54°41' W 000°32'48 9.6
2016-Sep-23 19:33N 54°17' E 000°40'161 8.4
2016-Sep-23 00:23N 52°02' E 003°05'910.8
2016-Sep-22 23:31N 52°03' E 003°21'27 9.3
2016-Sep-22 20:33N 51°58' E 004°05'0 0.1
2016-Sep-22 12:33N 51°58' E 004°04'0 0.0
2016-Sep-22 04:33N 51°58' E 004°04'0 0.0
2016-Sep-22 03:31N 51°58' E 004°04'0 0.0
2016-Sep-22 00:31N 51°58' E 004°04'0 0.0
2016-Sep-21 23:31N 51°58' E 004°04'0 0.2
2016-Sep-21 22:33N 51°58' E 004°04'22 7.2
2016-Sep-21 19:31N 51°56' E 003°29'3 0.3
2016-Sep-21 09:30N 51°53' E 003°27'0 0.1
2016-Sep-21 08:30N 51°53' E 003°27'0 0.1
2016-Sep-21 05:30N 51°53' E 003°28'0 0.0
2016-Sep-21 03:30N 51°53' E 003°28'0 0.2
2016-Sep-21 02:24N 51°53' E 003°28'0 0.0
2016-Sep-20 17:30N 51°53' E 003°28'1 0.3
2016-Sep-20 14:33N 51°52' E 003°28'4110.1
2016-Sep-20 10:33N 51°38' E 002°26'2010.2
2016-Sep-20 08:33N 51°22' E 002°07'10 9.9
2016-Sep-20 07:33N 51°13' E 002°00'1111.4
2016-Sep-20 06:33N 51°07' E 001°45'4912.2
2016-Sep-20 02:33N 50°30' E 000°54'4013.4
2016-Sep-19 23:33N 50°17' W 000°06'38 9.4
2016-Sep-19 19:33N 49°42' W 000°27'1212.2
2016-Sep-19 18:33N 49°33' W 000°15'16 7.8
2016-Sep-19 16:28N 49°28' E 000°09'0 0.0
2016-Sep-19 14:31N 49°28' E 000°09'0 0.0
2016-Sep-19 13:31N 49°28' E 000°09'0 0.0
2016-Sep-19 12:31N 49°28' E 000°09'0 0.0
2016-Sep-19 11:31N 49°28' E 000°09'0 0.0
2016-Sep-19 09:31N 49°28' E 000°09'0 0.0
2016-Sep-19 07:31N 49°28' E 000°09'0 0.0
2016-Sep-19 06:31N 49°28' E 000°09'0 0.0
2016-Sep-19 03:31N 49°28' E 000°09'0 0.0
2016-Sep-19 02:31N 49°28' E 000°09'0 0.0
2016-Sep-19 00:31N 49°28' E 000°09'  
Track history (hours):
 
Tides and Currents Weather Stations Pressure Air Temp Water Temp Dewpoint Dewpoint Depression Visibility Wind Speed Wind Dir Waves Ship Positions

Aegean Navigator

Last reported at 2016-Sep-29 00:30 UTC. Time now 2016-Sep-29 16:58 UTC.
Position N 52°22' E 002°06'.

Length 274 m; draft 15.7 m.

Type: Ship. MMSI: 240634000.

Date/timePositionNaut miles runAvg speedWind from/ knotsBaromVisibWave heightAir tempDewpointWater temp
2016-Sep-29 00:30N 52°22' E 002°06'0 0.0
2016-Sep-28 12:33N 52°22' E 002°06'0 0.1
2016-Sep-28 08:30N 52°22' E 002°06'0 0.1
2016-Sep-28 03:33N 52°22' E 002°06'0 0.1
2016-Sep-28 02:33N 52°22' E 002°06'0 0.0
2016-Sep-28 01:33N 52°22' E 002°06'18029.6
2016-Sep-27 19:29N 54°43' W 001°02'0 0.0
2016-Sep-27 14:04N 54°43' W 001°02'0 0.0
2016-Sep-27 13:27N 54°43' W 001°02'1 0.3
2016-Sep-27 10:32N 54°43' W 001°00'4 0.4
2016-Sep-27 00:32N 54°43' W 001°06'2 0.4
2016-Sep-26 20:31N 54°43' W 001°04'1 1.2
2016-Sep-26 19:29N 54°43' W 001°02'1 0.3
2016-Sep-26 15:30N 54°43' W 001°04'0 0.0
2016-Sep-26 13:31N 54°43' W 001°04'0 0.0
2016-Sep-26 11:29N 54°43' W 001°04'2 0.8
2016-Sep-26 08:29N 54°43' W 000°59'3 0.4
2016-Sep-26 02:26N 54°43' W 000°55'4 5.0
2016-Sep-26 01:33N 54°43' W 001°03'1 0.6
2016-Sep-26 00:32N 54°43' W 001°04'1 0.2
2016-Sep-25 21:33N 54°43' W 001°03'1 0.2
2016-Sep-25 17:33N 54°43' W 001°04'0 0.0
2016-Sep-25 16:31N 54°43' W 001°04'2 2.5
2016-Sep-25 15:33N 54°43' W 000°59'2 2.0
2016-Sep-25 14:33N 54°43' W 001°03'3 1.5
2016-Sep-25 12:33N 54°43' W 000°58'0 0.0
2016-Sep-25 11:32N 54°43' W 000°58'0 0.0
2016-Sep-25 10:32N 54°43' W 000°58'0 0.0
2016-Sep-25 09:33N 54°43' W 000°58'2 1.1
2016-Sep-25 07:33N 54°43' W 001°02'4 1.4
2016-Sep-25 04:34N 54°44' W 000°54'0 0.1
2016-Sep-25 00:34N 54°44' W 000°54'0 0.0
2016-Sep-24 22:33N 54°44' W 000°54'0 0.0
2016-Sep-24 21:34N 54°44' W 000°54'0 0.0
2016-Sep-24 19:33N 54°44' W 000°54'0 0.0
2016-Sep-24 18:33N 54°44' W 000°54'0 0.0
2016-Sep-24 17:33N 54°44' W 000°54'0 0.0
2016-Sep-24 16:33N 54°44' W 000°54'0 0.0
2016-Sep-24 14:33N 54°44' W 000°54'1 0.2
2016-Sep-24 10:33N 54°44' W 000°53'0 0.3
2016-Sep-24 09:33N 54°44' W 000°54'0 0.0
2016-Sep-24 03:33N 54°44' W 000°54'3 2.6
2016-Sep-24 02:34N 54°44' W 000°50'8 7.7
2016-Sep-24 01:33N 54°43' W 000°37'3 3.2
2016-Sep-24 00:34N 54°41' W 000°32'48 9.6
2016-Sep-23 19:33N 54°17' E 000°40'161 8.4
2016-Sep-23 00:23N 52°02' E 003°05'910.8
2016-Sep-22 23:31N 52°03' E 003°21'27 9.3
2016-Sep-22 20:33N 51°58' E 004°05'0 0.1
2016-Sep-22 12:33N 51°58' E 004°04'0 0.0
2016-Sep-22 04:33N 51°58' E 004°04'0 0.0
2016-Sep-22 03:31N 51°58' E 004°04'0 0.0
2016-Sep-22 00:31N 51°58' E 004°04'0 0.0
2016-Sep-21 23:31N 51°58' E 004°04'0 0.2
2016-Sep-21 22:33N 51°58' E 004°04'22 7.2
2016-Sep-21 19:31N 51°56' E 003°29'3 0.3
2016-Sep-21 09:30N 51°53' E 003°27'0 0.1
2016-Sep-21 08:30N 51°53' E 003°27'0 0.1
2016-Sep-21 05:30N 51°53' E 003°28'0 0.0
2016-Sep-21 03:30N 51°53' E 003°28'0 0.2
2016-Sep-21 02:24N 51°53' E 003°28'0 0.0
2016-Sep-20 17:30N 51°53' E 003°28'1 0.3
2016-Sep-20 14:33N 51°52' E 003°28'4110.1
2016-Sep-20 10:33N 51°38' E 002°26'2010.2
2016-Sep-20 08:33N 51°22' E 002°07'10 9.9
2016-Sep-20 07:33N 51°13' E 002°00'1111.4
2016-Sep-20 06:33N 51°07' E 001°45'4912.2
2016-Sep-20 02:33N 50°30' E 000°54'4013.4
2016-Sep-19 23:33N 50°17' W 000°06'38 9.4
2016-Sep-19 19:33N 49°42' W 000°27'1212.2
2016-Sep-19 18:33N 49°33' W 000°15'16 7.8
2016-Sep-19 16:28N 49°28' E 000°09'0 0.0
2016-Sep-19 14:31N 49°28' E 000°09'0 0.0
2016-Sep-19 13:31N 49°28' E 000°09'0 0.0
2016-Sep-19 12:31N 49°28' E 000°09'0 0.0
2016-Sep-19 11:31N 49°28' E 000°09'0 0.0
2016-Sep-19 09:31N 49°28' E 000°09'0 0.0
2016-Sep-19 07:31N 49°28' E 000°09'0 0.0
2016-Sep-19 06:31N 49°28' E 000°09'0 0.0
2016-Sep-19 03:31N 49°28' E 000°09'0 0.0
2016-Sep-19 02:31N 49°28' E 000°09'0 0.0
2016-Sep-19 00:31N 49°28' E 000°09'  

Dump ship's entire track history